首页
METAR-TAF:

METAR-TAF

机场 :

奥黑尔国际机场

芝加哥, 伊利诺伊州, 美国

纬度: 41-58-47N, 经度: 087-54-16W, 海拔: 203米

当前天气观测

该预报发布于26分钟前的14:51 UTC
风速12节,风向南转西南,有时为20节阵风
温度 23°C
湿度 73%
气压 1013 hPa
能見度: 16.1公里
散云层高于6000英尺
多云层高于10000英尺
多云层高于12000英尺
阴天层高于16000英尺

METAR: KORD 221451Z 20012G20KT 10SM SCT060 BKN100 BKN120 OVC160 23/18 A2990 RMK AO2 SLP119 60010 T02330183 56014

时间: 10:17 (15:17 UTC)

预报

该预报发布于15分钟前的15:02 UTC
预报有效从22日的 15点(UTC)到 23日的 18点(UTC)
风速13节,风向西南,有时为24节阵风
能見度: 10公里
散云层高于2000英尺
阴天层高于6000英尺
附近有阵雨
从 22日的 1700点(UTC)
风速16节,风向西南,有时为30节阵风
能見度: 10公里
散云层高于1500英尺
多云层高于2000英尺
附近有阵雨
从 22日的 2100点(UTC)
风速13节,风向西南,有时为23节阵风
能見度: 4.8公里
阴天层高于1500英尺, 积雨云.
阵雨, 轻雾, 附近有雷暴
短暂存在
从 22日的 22点(UTC)到 22日的 24点(UTC)
能見度: 1.6公里
雷暴, 大雨, 轻雾
从 23日的 0100点(UTC)
风速11节,风向西转西南
能見度: 8.0公里
多云层高于1500英尺
小阵雨, 轻雾
从 23日的 0400点(UTC)
风速11节,风向西转西北
能見度: 10公里
多云层高于1500英尺
附近有阵雨
从 23日的 0900点(UTC)
风速11节,风向西转西北
能見度: 10公里
散云层高于1000英尺
多云层高于3000英尺
从 23日的 1100点(UTC)
风速10节,风向西转西北
能見度: 10公里
散云层高于25000英尺

TAF: KORD 221502Z 2215/2318 22013G24KT P6SM VCSH SCT020 OVC060 FM221700 22016G30KT P6SM VCSH SCT015 BKN020 FM222100 22013G23KT 3SM SHRA BR VCTS OVC015CB TEMPO 2222/2224 1SM +TSRA BR FM230100 25011KT 5SM -SHRA BR BKN015 FM230400 29011KT P6SM VCSH BKN015 FM230900 30011KT P6SM SCT010 BKN030 FM231100 30010KT P6SM SCT250

超过4000个机场的气象观测和天气预报(METAR&TAF报告)。

可查询的气象台以黄色和红色小点在地图上表示。

将鼠标移到小点上方,可查看气象台名称。

然后点击查看天气观测和预报。

如需切换地图:点击带黑十字的绿色按钮放大地图;点击带横线的绿色按钮缩小地图;或者点击绿色箭头查看邻近地区的地图。


METAR-TAF: